默认 日期 大小 文件数 浏览量 最新下载 xml
amazon磁力链接相关资源由用户搜索指令自动获取,结果来源于网络,本站不存储任何资料,亦不承担任何责任,请于24小时内删除,搜索到6270个磁力,显示前4000条数据,用时10ms。
    ... Live From Climate Pledge Arena (Amazon Original) (48kHz) MP3": ... from Climate Pledge Arena) [Amazon Original].mp3": 15192036, " ... from Climate Pledge Arena) [Amazon Original].mp3": 10806218, " ... from Climate Pledge Arena) [Amazon Original].mp3": 9588872}, "Coldplay ...
创建时间: 2025-05-18 08:13:38 大小:4.15 GB 文件数量:473 热度:10 最近下载:2025-09-23 16:43:03
    {"Albums": {"Eminem - 2017 - Revival (44.1kHz) MP3": {"cover.jpg": 409632, "14. Heat.mp3": 10426897, "19. Arose.mp3": 11413304, "12. Framed.mp3": 10546776, "18. Castle.mp3": 10615292, "02. Believe.mp3": 13042620, "16. Need Me.mp3": 11032279, "15. Offended. ...
创建时间: 2025-06-16 14:53:41 大小:6.94 GB 文件数量:730 热度:10 最近下载:2025-10-10 11:04:02
    {"Nick Mason": {"Albums": {"Nick Mason - 1985 - Profiles (44.1kHz) MP3": {"cover.jpg": 785616, "01. Malta.mp3": 15256842, "03. Rhoda.mp3": 8932074, "05. Israel.mp3": 9298835, "08. Zip Code.mp3": 8179754, "09. Black Ice.mp3": 9606041, "07. Mumbo Jumbo.mp3": ...
创建时间: 2025-09-02 08:15:45 大小:14.79 GB 文件数量:1405 热度:10 最近下载:2025-09-27 12:09:02
    {"PELISNOVA.COM.url": 47, "The.Manor.2021.Amazon.1080p.WEB-DL.H264.EAC3.SDR.ENG.ESP-CAST.ESP-LAT.mkv": 5519579050}
创建时间: 2025-09-07 18:56:36 大小:5.14 GB 文件数量:2 热度:10 最近下载:2025-10-03 17:26:03
    {"PELISNOVA.COM.url": 47, "A.todo.gas.2001.Amazon.1080p.WEB-DL.H264.EAC3.SDR.ENG.ESP-CAST.ESP-LAT.mkv": 9248902867}
创建时间: 2025-09-08 14:17:52 大小:8.61 GB 文件数量:2 热度:10 最近下载:2025-10-03 17:26:04
    {"PELISNOVA.COM.url": 47, "El.poder.que.hay.en.ti.2019.Amazon.1080p.WEB-DL.H264.EAC3.SDR.ENG.ESP-CAST.mkv": 7598183751}
创建时间: 2025-09-09 18:35:24 大小:7.08 GB 文件数量:2 热度:10 最近下载:2025-10-08 21:35:03
    ... ": 79, "American.Dad.S14E14.1080p.Amazon.WEBRip.DD+.5.1.x264 ... ": 516603220, "American.Dad.S14E14.1080p.Amazon.WEBRip.DD+.5.1.x264 ...
创建时间: 2018-11-04 23:41:52 大小:497.52 MB 文件数量:7 热度:9 最近下载:2023-04-08 16:00:25
    {"Torrent downloaded from demonoid.pw.txt": 46, "Torrent Downloaded From ExtraTorrent.cc.txt": 352, "The Complete Amazon Seller Course - Master Amazon FBA.tgz": 1316890193}
创建时间: 2018-11-06 14:37:00 大小:1.23 GB 文件数量:3 热度:9 最近下载:2024-12-10 08:45:02
    ... .Good.Doctor.S01E04.Pipes.720p.Amazon.WEB-DL.DD+5.1 ... .Good.Doctor.S01E04.Pipes.720p.Amazon.WEB-DL.DD+5.1 ...
创建时间: 2018-11-06 22:19:10 大小:906.61 MB 文件数量:7 热度:9 最近下载:2025-03-31 07:44:02
    {"2.Broke.Girls.S06E22.1080p.Amazon.WEBRip.DD.5.1.x264.mkv": 1796909189, "2.Broke.Girls.S06E22.1080p.Amazon.WEBRip.DD.5.1.x264.eng&chs.srt": 71878}
创建时间: 2018-11-08 06:48:13 大小:1.67 GB 文件数量:2 热度:9 最近下载:2025-08-08 18:09:03
    {"fico-cataq.avi": 736374784, "fico-cataq.nfo": 9440, "www.Torrenting.com.txt": 473, "READ this before playing the Movie.txt": 473}
创建时间: 2018-11-08 12:20:22 大小:702.27 MB 文件数量:4 热度:9 最近下载:2025-03-02 22:45:04
    ... "ross.kemp.battle.for.the.amazon.part1-taste.r00": 15000000, "ross ... .kemp.battle.for.the.amazon.part1-taste.r01": 15000000, " ... ross.kemp.battle.for.the.amazon.part1-taste.r02": 15000000, " ... ross.kemp.battle.for.the.amazon.part1-taste.r03": 15000000, " ...
创建时间: 2018-11-08 15:02:08 大小:363.16 MB 文件数量:30 热度:9 最近下载:2025-05-16 21:29:01
    {"Cover.pdf": 252349, "Sample.pdf": 336955, "file_id.diz": 882, "digibook.nfo": 3411, "Please Readme !!!.txt": 451, "Pearson-A.Developers.Guide.to.Amazon.SimpleDB.2013.RETAiL.EBook.rar": 1685017}
创建时间: 2018-11-09 07:16:19 大小:2.17 MB 文件数量:6 热度:9 最近下载:2024-07-11 00:27:02
    {"Read Me.txt": 80, "TutsGalaxy.com.txt": 41, "Torrent_downloaded_from_Demonoid_-_www.demonoid.pw_.txt": 59, "Amazon Affiliate Marketing + SEO 250+ Videos 18.0 Hours.zip": 3095351132}
创建时间: 2018-11-09 11:59:58 大小:2.88 GB 文件数量:4 热度:9 最近下载:2025-10-01 17:19:03
    ... , "2 Broke Girls S06E08 1080p Amazon WEBRip DD+ 5.1 x264 ... , "2 Broke Girls S06E08 1080p Amazon WEBRip DD+ 5.1 x264 ...
创建时间: 2018-11-10 03:46:56 大小:1.91 GB 文件数量:7 热度:9 最近下载:2025-08-05 23:37:04
    {"Amazon Bully part-1.mov": 247574739, "Amazon Bully part-2.mov": 227421705, "Amazon Bully part-3.mov": 252484757, "Amazon Bully part-1_thumb.jpg": 184697, "Amazon Bully part-2_thumb.jpg": 184568, "Amazon Bully part-3_thumb.jpg": 182542}
创建时间: 2018-11-10 09:02:22 大小:694.31 MB 文件数量:6 热度:9 最近下载:2024-07-04 22:41:01
    {"autorun.pdf": 11144, "Torrent downloaded from 1337x.org.txt": 76, "Lynda Amazon Web Services Machine Learning Essential2018.exe": 1062640}
创建时间: 2018-11-11 10:24:22 大小:1.02 MB 文件数量:3 热度:9 最近下载:2025-07-30 20:14:03
    {"www.FENOPY.se.jpg": 112368, "Torrent downloaded from 1337x.org.txt": 28, "Amazon Instant Video 4 Year Premium Account Generator 2018.exe": 17305310}
创建时间: 2018-11-12 23:14:53 大小:16.61 MB 文件数量:3 热度:9 最近下载:2025-08-11 04:05:02
    ... ": 691, "Supergirl.S04E04.Ahimsa.1080p.Amazon.WEB-DL.DD+5.1 ... ": 3473724167, "Supergirl.S04E04.Ahimsa.1080p.Amazon.WEB-DL.DD+5.1 ...
创建时间: 2018-11-13 00:02:15 大小:3.24 GB 文件数量:7 热度:9 最近下载:2025-08-02 01:44:08
    {"RARBG.txt": 30, "Amazon.Women.on.the.Moon.1987.1080p.BluRay.H264.AAC-RARBG.mp4": 1729201475}
创建时间: 2018-11-14 03:06:54 大小:1.61 GB 文件数量:2 热度:9 最近下载:2023-04-15 01:30:06